Central Valley, Nevada
Current Conditions -  °F | °C
As of 12:55 PM on Tuesday 25 Nov 2014 (Local Time) from KMEV Reporting Station
Clear Clear  
Wind Chill: 55°   Ceiling: Unl
Heat Index: 55°   Visibility: 10mi
Dew Point: 21°   Wind: 5mph
Humidity: 26%   Direction: 210°SSW
Pressure: 30.48"   Gusts: NA
Location:  38.9511°N, 119.329°W
Report Text: KMEV 252055Z AUTO 21004KT 10SM CLR 13/M06 A3048 RMK AO2
Loading
Personal Weather Stations






























Interactive Weather Map New forecast layout! Learn more

10-Day Weather Forecast

Advertisements
Track Severe Weather on mobile